createdAt,value
2018-06-18T14:36:45.581Z,1015.01
2018-06-18T14:37:45.281Z,1015.00
2018-06-18T14:53:38.476Z,1015.02
2018-06-18T14:54:38.640Z,1015.00
2018-06-18T14:55:37.912Z,1015.02
2018-06-18T14:56:36.986Z,1014.96
2018-06-18T14:57:37.781Z,1014.93
2018-06-18T14:58:37.826Z,1014.97
2018-06-18T14:59:37.678Z,1014.98
2018-06-18T15:00:37.585Z,1014.94
2018-06-18T15:01:37.661Z,1014.91
2018-06-18T15:06:25.240Z,1014.95
2018-06-18T15:07:25.225Z,1014.88
2018-06-18T15:08:25.180Z,1014.88
2018-06-18T15:09:25.145Z,1014.89
2018-06-18T15:10:25.433Z,1014.89
2018-06-18T15:11:24.177Z,1014.88
2018-06-18T15:17:16.687Z,1014.88
2018-06-18T15:18:17.384Z,1014.82
2018-06-18T15:19:16.547Z,1014.77
2018-06-18T15:20:17.644Z,1014.81
2018-06-18T15:21:16.540Z,1014.82
2018-06-18T15:22:16.388Z,1014.84
2018-06-18T15:23:16.390Z,1014.88
2018-06-18T15:24:16.383Z,1014.83
2018-06-18T15:25:16.678Z,1014.85
2018-06-18T15:26:16.307Z,1014.80
2018-06-18T15:27:16.215Z,1014.80
2018-06-18T15:28:16.168Z,1014.76
2018-06-18T15:29:17.066Z,1014.81
2018-06-18T15:30:16.086Z,1014.76
2018-06-18T15:31:16.185Z,1014.72
2018-06-18T15:32:16.928Z,1014.77
2018-06-18T15:33:16.151Z,1014.75
2018-06-18T15:34:16.980Z,1014.77
2018-06-18T15:35:16.870Z,1014.71
2018-06-18T15:36:17.176Z,1014.74
2018-06-18T15:37:16.818Z,1014.76
2018-06-18T15:38:16.887Z,1014.72
2018-06-18T15:39:16.736Z,1014.73
2018-06-18T15:40:16.737Z,1014.68
2018-06-18T15:41:15.787Z,1014.76
2018-06-18T15:42:02.904Z,1014.75
2018-06-18T15:43:02.983Z,1014.76
2018-06-18T15:44:02.950Z,1014.71
2018-06-18T15:45:02.845Z,1014.75
2018-06-18T15:46:02.946Z,1014.73
2018-06-18T15:47:02.913Z,1014.67
2018-06-18T15:48:02.808Z,1014.73
2018-06-18T15:49:02.778Z,1014.73
2018-06-18T15:50:02.749Z,1014.75
2018-06-18T15:51:02.683Z,1014.68
2018-06-18T15:52:02.672Z,1014.66
2018-06-18T15:53:04.535Z,1014.62
